sensor_id;sensor_type;location;lat;lon;timestamp;temperature;humidity
29577;DHT22;16509;53.862;10.672;2022-11-27T00:01:16;8.40;99.90
29577;DHT22;16509;53.862;10.672;2022-11-27T00:03:46;7.30;99.90
29577;DHT22;16509;53.862;10.672;2022-11-27T00:06:14;7.30;99.90
29577;DHT22;16509;53.862;10.672;2022-11-27T00:08:40;7.40;99.90
29577;DHT22;16509;53.862;10.672;2022-11-27T00:11:09;6.80;99.90
29577;DHT22;16509;53.862;10.672;2022-11-27T00:13:39;7.70;99.90
29577;DHT22;16509;53.862;10.672;2022-11-27T00:16:06;7.10;99.90
29577;DHT22;16509;53.862;10.672;2022-11-27T00:18:32;7.10;99.90
29577;DHT22;16509;53.862;10.672;2022-11-27T00:21:09;6.80;99.90
29577;DHT22;16509;53.862;10.672;2022-11-27T00:23:37;7.20;99.90
29577;DHT22;16509;53.862;10.672;2022-11-27T00:26:04;7.00;99.90
29577;DHT22;16509;53.862;10.672;2022-11-27T00:28:30;7.10;99.90
29577;DHT22;16509;53.862;10.672;2022-11-27T00:30:59;8.00;99.90
29577;DHT22;16509;53.862;10.672;2022-11-27T00:33:25;7.00;99.90
29577;DHT22;16509;53.862;10.672;2022-11-27T00:35:51;7.00;99.90
29577;DHT22;16509;53.862;10.672;2022-11-27T00:38:16;7.00;99.90
29577;DHT22;16509;53.862;10.672;2022-11-27T00:40:42;8.50;99.90
29577;DHT22;16509;53.862;10.672;2022-11-27T00:43:07;6.90;99.90
29577;DHT22;16509;53.862;10.672;2022-11-27T00:45:33;7.00;99.90
29577;DHT22;16509;53.862;10.672;2022-11-27T00:47:59;7.30;99.90
29577;DHT22;16509;53.862;10.672;2022-11-27T00:50:24;7.10;99.90
29577;DHT22;16509;53.862;10.672;2022-11-27T00:52:50;6.80;99.90
29577;DHT22;16509;53.862;10.672;2022-11-27T00:55:15;6.90;99.90
29577;DHT22;16509;53.862;10.672;2022-11-27T00:57:41;6.90;99.90
29577;DHT22;16509;53.862;10.672;2022-11-27T01:00:07;8.60;99.90
29577;DHT22;16509;53.862;10.672;2022-11-27T01:02:33;7.00;99.90
29577;DHT22;16509;53.862;10.672;2022-11-27T01:05:04;7.60;99.90
29577;DHT22;16509;53.862;10.672;2022-11-27T01:07:29;7.00;99.90
29577;DHT22;16509;53.862;10.672;2022-11-27T01:09:55;6.80;99.90
29577;DHT22;16509;53.862;10.672;2022-11-27T01:12:20;7.30;99.90
29577;DHT22;16509;53.862;10.672;2022-11-27T01:14:46;7.10;99.90
29577;DHT22;16509;53.862;10.672;2022-11-27T01:17:11;6.60;99.90
29577;DHT22;16509;53.862;10.672;2022-11-27T01:19:37;6.90;99.90
29577;DHT22;16509;53.862;10.672;2022-11-27T01:22:03;7.00;99.90
29577;DHT22;16509;53.862;10.672;2022-11-27T01:24:28;6.70;99.90
29577;DHT22;16509;53.862;10.672;2022-11-27T01:26:59;7.40;99.90
29577;DHT22;16509;53.862;10.672;2022-11-27T01:29:24;6.90;99.90
29577;DHT22;16509;53.862;10.672;2022-11-27T01:31:50;6.90;99.90
29577;DHT22;16509;53.862;10.672;2022-11-27T01:34:22;6.40;99.90
29577;DHT22;16509;53.862;10.672;2022-11-27T01:36:47;6.60;99.90
29577;DHT22;16509;53.862;10.672;2022-11-27T01:39:18;7.30;99.90
29577;DHT22;16509;53.862;10.672;2022-11-27T01:41:46;7.60;99.90
29577;DHT22;16509;53.862;10.672;2022-11-27T01:46:59;6.50;99.90
29577;DHT22;16509;53.862;10.672;2022-11-27T01:49:35;6.70;99.90
29577;DHT22;16509;53.862;10.672;2022-11-27T01:54:55;6.60;99.90
29577;DHT22;16509;53.862;10.672;2022-11-27T01:57:25;6.60;99.90
29577;DHT22;16509;53.862;10.672;2022-11-27T01:59:53;6.70;99.90
29577;DHT22;16509;53.862;10.672;2022-11-27T02:02:21;6.50;99.90
29577;DHT22;16509;53.862;10.672;2022-11-27T02:04:46;6.50;99.90
29577;DHT22;16509;53.862;10.672;2022-11-27T02:07:12;6.80;99.90
29577;DHT22;16509;53.862;10.672;2022-11-27T02:09:38;6.40;99.90
29577;DHT22;16509;53.862;10.672;2022-11-27T02:12:26;6.60;99.90
29577;DHT22;16509;53.862;10.672;2022-11-27T02:20:26;7.60;99.90
29577;DHT22;16509;53.862;10.672;2022-11-27T02:23:35;6.40;99.90
29577;DHT22;16509;53.862;10.672;2022-11-27T02:28:58;6.30;99.90
29577;DHT22;16509;53.862;10.672;2022-11-27T02:34:02;6.30;99.90
29577;DHT22;16509;53.862;10.672;2022-11-27T02:36:30;6.30;99.90
29577;DHT22;16509;53.862;10.672;2022-11-27T02:39:06;6.50;99.90
29577;DHT22;16509;53.862;10.672;2022-11-27T02:41:45;6.30;99.90
29577;DHT22;16509;53.862;10.672;2022-11-27T02:44:12;6.20;99.90
29577;DHT22;16509;53.862;10.672;2022-11-27T02:46:39;6.20;99.90
29577;DHT22;16509;53.862;10.672;2022-11-27T02:49:10;6.10;99.90
29577;DHT22;16509;53.862;10.672;2022-11-27T02:51:42;6.40;99.90
29577;DHT22;16509;53.862;10.672;2022-11-27T02:54:13;6.50;99.90
29577;DHT22;16509;53.862;10.672;2022-11-27T02:56:58;6.00;99.90
29577;DHT22;16509;53.862;10.672;2022-11-27T02:59:28;6.10;99.90
29577;DHT22;16509;53.862;10.672;2022-11-27T03:02:01;6.10;99.90
29577;DHT22;16509;53.862;10.672;2022-11-27T03:04:34;6.00;99.90
29577;DHT22;16509;53.862;10.672;2022-11-27T03:07:07;6.00;99.90
29577;DHT22;16509;53.862;10.672;2022-11-27T03:09:40;6.00;99.90
29577;DHT22;16509;53.862;10.672;2022-11-27T03:12:09;7.00;99.90
29577;DHT22;16509;53.862;10.672;2022-11-27T03:14:37;5.90;99.90
29577;DHT22;16509;53.862;10.672;2022-11-27T03:17:34;6.10;99.90
29577;DHT22;16509;53.862;10.672;2022-11-27T03:22:36;5.90;99.90
29577;DHT22;16509;53.862;10.672;2022-11-27T03:25:02;5.90;99.90
29577;DHT22;16509;53.862;10.672;2022-11-27T03:27:34;5.80;99.90
29577;DHT22;16509;53.862;10.672;2022-11-27T03:30:05;5.80;99.90
29577;DHT22;16509;53.862;10.672;2022-11-27T03:32:32;5.70;99.90
29577;DHT22;16509;53.862;10.672;2022-11-27T03:34:59;5.20;99.90
29577;DHT22;16509;53.862;10.672;2022-11-27T03:37:25;5.60;99.90
29577;DHT22;16509;53.862;10.672;2022-11-27T03:39:56;5.40;99.90
29577;DHT22;16509;53.862;10.672;2022-11-27T04:01:11;5.50;99.90
29577;DHT22;16509;53.862;10.672;2022-11-27T04:03:41;5.40;99.90
29577;DHT22;16509;53.862;10.672;2022-11-27T04:06:07;5.50;99.90
29577;DHT22;16509;53.862;10.672;2022-11-27T04:08:33;5.70;99.90
29577;DHT22;16509;53.862;10.672;2022-11-27T04:11:01;5.40;99.90
29577;DHT22;16509;53.862;10.672;2022-11-27T04:13:27;5.30;99.90
29577;DHT22;16509;53.862;10.672;2022-11-27T04:16:00;5.30;99.90
29577;DHT22;16509;53.862;10.672;2022-11-27T04:18:26;5.50;99.90
29577;DHT22;16509;53.862;10.672;2022-11-27T04:20:51;5.20;99.90
29577;DHT22;16509;53.862;10.672;2022-11-27T04:23:17;5.40;99.90
29577;DHT22;16509;53.862;10.672;2022-11-27T04:25:43;5.50;99.90
29577;DHT22;16509;53.862;10.672;2022-11-27T04:28:09;6.10;99.90
29577;DHT22;16509;53.862;10.672;2022-11-27T04:30:34;5.10;99.90
29577;DHT22;16509;53.862;10.672;2022-11-27T04:33:00;6.70;99.90
29577;DHT22;16509;53.862;10.672;2022-11-27T04:35:27;5.60;99.90
29577;DHT22;16509;53.862;10.672;2022-11-27T04:37:55;5.00;99.90
29577;DHT22;16509;53.862;10.672;2022-11-27T04:40:21;6.30;99.90
29577;DHT22;16509;53.862;10.672;2022-11-27T04:42:47;4.90;99.90
29577;DHT22;16509;53.862;10.672;2022-11-27T04:45:15;5.00;99.90
29577;DHT22;16509;53.862;10.672;2022-11-27T04:47:41;4.90;99.90
29577;DHT22;16509;53.862;10.672;2022-11-27T04:50:07;5.20;99.90
29577;DHT22;16509;53.862;10.672;2022-11-27T04:52:33;4.90;99.90
29577;DHT22;16509;53.862;10.672;2022-11-27T04:54:58;5.10;99.90
29577;DHT22;16509;53.862;10.672;2022-11-27T04:57:24;6.00;99.90
29577;DHT22;16509;53.862;10.672;2022-11-27T04:59:49;4.40;99.90
29577;DHT22;16509;53.862;10.672;2022-11-27T05:02:15;4.70;99.90
29577;DHT22;16509;53.862;10.672;2022-11-27T05:04:41;4.60;99.90
29577;DHT22;16509;53.862;10.672;2022-11-27T05:07:06;4.60;99.90
29577;DHT22;16509;53.862;10.672;2022-11-27T05:09:32;5.00;99.90
29577;DHT22;16509;53.862;10.672;2022-11-27T05:11:57;4.50;99.90
29577;DHT22;16509;53.862;10.672;2022-11-27T05:14:23;4.90;99.90
29577;DHT22;16509;53.862;10.672;2022-11-27T05:16:55;4.60;99.90
29577;DHT22;16509;53.862;10.672;2022-11-27T05:19:23;5.10;99.90
29577;DHT22;16509;53.862;10.672;2022-11-27T05:21:49;4.90;99.90
29577;DHT22;16509;53.862;10.672;2022-11-27T05:24:16;4.40;99.90
29577;DHT22;16509;53.862;10.672;2022-11-27T05:26:42;4.80;99.90
29577;DHT22;16509;53.862;10.672;2022-11-27T05:29:10;5.10;99.90
29577;DHT22;16509;53.862;10.672;2022-11-27T05:31:37;5.00;99.90
29577;DHT22;16509;53.862;10.672;2022-11-27T05:34:03;5.10;99.90
29577;DHT22;16509;53.862;10.672;2022-11-27T05:36:30;4.30;99.90
29577;DHT22;16509;53.862;10.672;2022-11-27T05:38:56;5.80;99.90
29577;DHT22;16509;53.862;10.672;2022-11-27T05:41:22;4.10;99.90
29577;DHT22;16509;53.862;10.672;2022-11-27T05:43:48;4.30;99.90
29577;DHT22;16509;53.862;10.672;2022-11-27T05:46:16;4.30;99.90
29577;DHT22;16509;53.862;10.672;2022-11-27T05:48:41;4.70;99.90
29577;DHT22;16509;53.862;10.672;2022-11-27T05:51:07;4.40;99.90
29577;DHT22;16509;53.862;10.672;2022-11-27T05:53:33;4.90;99.90
29577;DHT22;16509;53.862;10.672;2022-11-27T05:56:04;4.50;99.90
29577;DHT22;16509;53.862;10.672;2022-11-27T05:58:31;4.20;99.90
29577;DHT22;16509;53.862;10.672;2022-11-27T06:00:57;4.10;99.90
29577;DHT22;16509;53.862;10.672;2022-11-27T06:03:23;4.10;99.90
29577;DHT22;16509;53.862;10.672;2022-11-27T06:05:49;4.10;99.90
29577;DHT22;16509;53.862;10.672;2022-11-27T06:08:14;4.10;99.90
29577;DHT22;16509;53.862;10.672;2022-11-27T06:10:40;4.10;99.90
29577;DHT22;16509;53.862;10.672;2022-11-27T06:13:06;4.00;99.90
29577;DHT22;16509;53.862;10.672;2022-11-27T06:15:31;3.60;99.90
29577;DHT22;16509;53.862;10.672;2022-11-27T06:17:57;4.70;99.90
29577;DHT22;16509;53.862;10.672;2022-11-27T06:20:23;3.80;99.90
29577;DHT22;16509;53.862;10.672;2022-11-27T06:22:49;4.00;99.90
29577;DHT22;16509;53.862;10.672;2022-11-27T06:25:15;4.00;99.90
29577;DHT22;16509;53.862;10.672;2022-11-27T06:27:41;4.20;99.90
29577;DHT22;16509;53.862;10.672;2022-11-27T06:30:07;3.90;99.90
29577;DHT22;16509;53.862;10.672;2022-11-27T06:32:33;3.90;99.90
29577;DHT22;16509;53.862;10.672;2022-11-27T06:34:59;3.90;99.90
29577;DHT22;16509;53.862;10.672;2022-11-27T06:37:24;3.90;99.90
29577;DHT22;16509;53.862;10.672;2022-11-27T06:39:50;3.80;99.90
29577;DHT22;16509;53.862;10.672;2022-11-27T06:42:16;4.40;99.90
29577;DHT22;16509;53.862;10.672;2022-11-27T06:44:41;3.80;99.90
29577;DHT22;16509;53.862;10.672;2022-11-27T06:47:07;3.80;99.90
29577;DHT22;16509;53.862;10.672;2022-11-27T06:49:33;3.70;99.90
29577;DHT22;16509;53.862;10.672;2022-11-27T06:51:59;3.80;99.90
29577;DHT22;16509;53.862;10.672;2022-11-27T06:54:25;5.10;99.90
29577;DHT22;16509;53.862;10.672;2022-11-27T06:56:50;4.70;99.90
29577;DHT22;16509;53.862;10.672;2022-11-27T06:59:17;4.10;99.90
29577;DHT22;16509;53.862;10.672;2022-11-27T07:01:43;4.50;99.90
29577;DHT22;16509;53.862;10.672;2022-11-27T07:04:13;3.70;99.90
29577;DHT22;16509;53.862;10.672;2022-11-27T07:06:39;3.60;99.90
29577;DHT22;16509;53.862;10.672;2022-11-27T07:09:06;3.60;99.90
29577;DHT22;16509;53.862;10.672;2022-11-27T07:11:32;3.60;99.90
29577;DHT22;16509;53.862;10.672;2022-11-27T07:14:00;5.20;99.90
29577;DHT22;16509;53.862;10.672;2022-11-27T07:16:28;3.70;99.90
29577;DHT22;16509;53.862;10.672;2022-11-27T07:18:58;3.60;99.90
29577;DHT22;16509;53.862;10.672;2022-11-27T07:21:25;4.70;99.90
29577;DHT22;16509;53.862;10.672;2022-11-27T07:23:50;3.60;99.90
29577;DHT22;16509;53.862;10.672;2022-11-27T07:26:19;3.60;99.90
29577;DHT22;16509;53.862;10.672;2022-11-27T07:28:45;4.40;99.90
29577;DHT22;16509;53.862;10.672;2022-11-27T07:31:13;3.60;99.90
29577;DHT22;16509;53.862;10.672;2022-11-27T07:33:39;3.60;99.90
29577;DHT22;16509;53.862;10.672;2022-11-27T07:38:32;3.70;99.90
29577;DHT22;16509;53.862;10.672;2022-11-27T07:40:59;3.60;99.90
29577;DHT22;16509;53.862;10.672;2022-11-27T07:43:26;5.30;99.90
29577;DHT22;16509;53.862;10.672;2022-11-27T07:45:52;3.50;99.90
29577;DHT22;16509;53.862;10.672;2022-11-27T07:48:17;3.90;99.90
29577;DHT22;16509;53.862;10.672;2022-11-27T07:50:43;4.20;99.90
29577;DHT22;16509;53.862;10.672;2022-11-27T07:53:09;4.60;99.90
29577;DHT22;16509;53.862;10.672;2022-11-27T07:55:37;5.60;99.90
29577;DHT22;16509;53.862;10.672;2022-11-27T07:58:03;4.80;99.90
29577;DHT22;16509;53.862;10.672;2022-11-27T08:00:29;5.20;99.90
29577;DHT22;16509;53.862;10.672;2022-11-27T08:02:55;3.30;99.90
29577;DHT22;16509;53.862;10.672;2022-11-27T08:05:21;3.80;99.90
29577;DHT22;16509;53.862;10.672;2022-11-27T08:07:46;4.00;99.90
29577;DHT22;16509;53.862;10.672;2022-11-27T08:10:12;4.70;99.90
29577;DHT22;16509;53.862;10.672;2022-11-27T08:12:38;3.30;99.90
29577;DHT22;16509;53.862;10.672;2022-11-27T08:15:03;3.80;99.90
29577;DHT22;16509;53.862;10.672;2022-11-27T08:17:30;3.80;99.90
29577;DHT22;16509;53.862;10.672;2022-11-27T08:19:55;3.70;99.90
29577;DHT22;16509;53.862;10.672;2022-11-27T08:22:21;4.90;99.90
29577;DHT22;16509;53.862;10.672;2022-11-27T08:24:47;3.80;99.90
29577;DHT22;16509;53.862;10.672;2022-11-27T08:27:13;4.40;99.90
29577;DHT22;16509;53.862;10.672;2022-11-27T08:29:40;5.60;99.90
29577;DHT22;16509;53.862;10.672;2022-11-27T08:32:06;4.50;99.90
29577;DHT22;16509;53.862;10.672;2022-11-27T08:34:31;3.80;99.90
29577;DHT22;16509;53.862;10.672;2022-11-27T08:36:57;3.80;99.90
29577;DHT22;16509;53.862;10.672;2022-11-27T08:39:23;3.70;99.90
29577;DHT22;16509;53.862;10.672;2022-11-27T08:41:51;4.20;99.90
29577;DHT22;16509;53.862;10.672;2022-11-27T08:44:16;3.70;99.90
29577;DHT22;16509;53.862;10.672;2022-11-27T08:46:42;3.70;99.90
29577;DHT22;16509;53.862;10.672;2022-11-27T08:49:08;3.70;99.90
29577;DHT22;16509;53.862;10.672;2022-11-27T08:51:33;3.70;99.90
29577;DHT22;16509;53.862;10.672;2022-11-27T08:53:59;5.00;99.90
29577;DHT22;16509;53.862;10.672;2022-11-27T08:56:25;4.40;99.90
29577;DHT22;16509;53.862;10.672;2022-11-27T08:58:51;4.20;99.90
29577;DHT22;16509;53.862;10.672;2022-11-27T09:01:19;3.70;99.90
29577;DHT22;16509;53.862;10.672;2022-11-27T09:03:46;3.80;99.90
29577;DHT22;16509;53.862;10.672;2022-11-27T09:06:31;4.80;99.90
29577;DHT22;16509;53.862;10.672;2022-11-27T09:09:08;3.70;99.90
29577;DHT22;16509;53.862;10.672;2022-11-27T09:11:34;3.90;99.90
29577;DHT22;16509;53.862;10.672;2022-11-27T09:14:01;4.00;99.90
29577;DHT22;16509;53.862;10.672;2022-11-27T09:16:28;4.10;99.90
29577;DHT22;16509;53.862;10.672;2022-11-27T09:18:55;4.30;99.90
29577;DHT22;16509;53.862;10.672;2022-11-27T09:21:22;4.50;99.90
29577;DHT22;16509;53.862;10.672;2022-11-27T09:23:52;4.30;99.90
29577;DHT22;16509;53.862;10.672;2022-11-27T09:26:18;4.90;99.90
29577;DHT22;16509;53.862;10.672;2022-11-27T09:28:44;4.50;99.90
29577;DHT22;16509;53.862;10.672;2022-11-27T09:31:12;4.60;99.90
29577;DHT22;16509;53.862;10.672;2022-11-27T09:33:39;5.10;99.90
29577;DHT22;16509;53.862;10.672;2022-11-27T09:36:07;5.10;99.90
29577;DHT22;16509;53.862;10.672;2022-11-27T09:38:38;4.70;99.90
29577;DHT22;16509;53.862;10.672;2022-11-27T09:46:41;4.70;99.90
29577;DHT22;16509;53.862;10.672;2022-11-27T09:49:16;4.70;99.90
29577;DHT22;16509;53.862;10.672;2022-11-27T09:54:35;4.80;99.90
29577;DHT22;16509;53.862;10.672;2022-11-27T09:57:01;4.70;99.90
29577;DHT22;16509;53.862;10.672;2022-11-27T09:59:34;4.70;99.90
29577;DHT22;16509;53.862;10.672;2022-11-27T10:02:00;4.70;99.90
29577;DHT22;16509;53.862;10.672;2022-11-27T10:04:26;4.70;99.90
29577;DHT22;16509;53.862;10.672;2022-11-27T10:07:08;5.30;99.90
29577;DHT22;16509;53.862;10.672;2022-11-27T10:15:21;4.80;99.90
29577;DHT22;16509;53.862;10.672;2022-11-27T10:26:29;4.70;99.90
29577;DHT22;16509;53.862;10.672;2022-11-27T10:31:49;4.70;99.90
29577;DHT22;16509;53.862;10.672;2022-11-27T10:37:43;4.80;99.90
29577;DHT22;16509;53.862;10.672;2022-11-27T10:42:50;5.00;99.90
29577;DHT22;16509;53.862;10.672;2022-11-27T10:45:38;5.00;99.90
29577;DHT22;16509;53.862;10.672;2022-11-27T10:48:05;3.90;99.90
29577;DHT22;16509;53.862;10.672;2022-11-27T10:50:31;5.00;99.90
29577;DHT22;16509;53.862;10.672;2022-11-27T10:59:02;5.00;99.90
29577;DHT22;16509;53.862;10.672;2022-11-27T11:01:45;6.90;99.90
29577;DHT22;16509;53.862;10.672;2022-11-27T11:04:11;5.10;99.90
29577;DHT22;16509;53.862;10.672;2022-11-27T11:06:47;5.10;99.90
29577;DHT22;16509;53.862;10.672;2022-11-27T11:09:33;5.20;99.90
29577;DHT22;16509;53.862;10.672;2022-11-27T11:12:18;5.30;99.90
29577;DHT22;16509;53.862;10.672;2022-11-27T11:14:52;5.40;99.90
29577;DHT22;16509;53.862;10.672;2022-11-27T11:17:39;5.50;99.90
29577;DHT22;16509;53.862;10.672;2022-11-27T11:20:27;5.50;99.90
29577;DHT22;16509;53.862;10.672;2022-11-27T11:22:52;5.60;99.90
29577;DHT22;16509;53.862;10.672;2022-11-27T11:25:20;5.80;99.90
29577;DHT22;16509;53.862;10.672;2022-11-27T11:27:47;5.80;99.90
29577;DHT22;16509;53.862;10.672;2022-11-27T11:30:28;5.90;99.90
29577;DHT22;16509;53.862;10.672;2022-11-27T11:33:00;7.00;99.90
29577;DHT22;16509;53.862;10.672;2022-11-27T11:37:54;5.90;99.90
29577;DHT22;16509;53.862;10.672;2022-11-27T11:40:31;5.90;99.90
29577;DHT22;16509;53.862;10.672;2022-11-27T11:45:45;5.90;99.90
29577;DHT22;16509;53.862;10.672;2022-11-27T11:48:25;5.90;99.90
29577;DHT22;16509;53.862;10.672;2022-11-27T11:51:01;5.90;99.90
29577;DHT22;16509;53.862;10.672;2022-11-27T11:53:39;5.90;99.90
29577;DHT22;16509;53.862;10.672;2022-11-27T12:04:30;6.10;99.90
29577;DHT22;16509;53.862;10.672;2022-11-27T12:15:16;6.10;99.90
29577;DHT22;16509;53.862;10.672;2022-11-27T12:18:00;6.10;99.90
29577;DHT22;16509;53.862;10.672;2022-11-27T12:28:45;6.00;99.90
29577;DHT22;16509;53.862;10.672;2022-11-27T12:34:17;6.00;99.90
29577;DHT22;16509;53.862;10.672;2022-11-27T12:42:17;6.00;99.90
29577;DHT22;16509;53.862;10.672;2022-11-27T12:44:55;6.00;99.90
29577;DHT22;16509;53.862;10.672;2022-11-27T12:47:39;6.00;99.90
29577;DHT22;16509;53.862;10.672;2022-11-27T12:50:28;6.60;99.90
29577;DHT22;16509;53.862;10.672;2022-11-27T12:55:30;5.90;99.90
29577;DHT22;16509;53.862;10.672;2022-11-27T12:58:14;5.90;99.90
29577;DHT22;16509;53.862;10.672;2022-11-27T13:00:41;6.00;99.90
29577;DHT22;16509;53.862;10.672;2022-11-27T13:03:36;6.00;99.90
29577;DHT22;16509;53.862;10.672;2022-11-27T13:06:15;5.90;99.90
29577;DHT22;16509;53.862;10.672;2022-11-27T13:08:55;5.90;99.90
29577;DHT22;16509;53.862;10.672;2022-11-27T13:11:32;5.80;99.90
29577;DHT22;16509;53.862;10.672;2022-11-27T13:14:07;5.80;99.90
29577;DHT22;16509;53.862;10.672;2022-11-27T13:16:38;5.80;99.90
29577;DHT22;16509;53.862;10.672;2022-11-27T13:21:38;5.90;99.90
29577;DHT22;16509;53.862;10.672;2022-11-27T13:24:05;5.60;99.90
29577;DHT22;16509;53.862;10.672;2022-11-27T13:26:40;5.60;99.90
29577;DHT22;16509;53.862;10.672;2022-11-27T13:29:28;5.70;99.90
29577;DHT22;16509;53.862;10.672;2022-11-27T13:31:56;5.70;99.90
29577;DHT22;16509;53.862;10.672;2022-11-27T13:34:26;5.70;99.90
29577;DHT22;16509;53.862;10.672;2022-11-27T13:37:06;5.70;99.90
29577;DHT22;16509;53.862;10.672;2022-11-27T13:39:35;6.10;99.90
29577;DHT22;16509;53.862;10.672;2022-11-27T13:44:42;5.70;99.90
29577;DHT22;16509;53.862;10.672;2022-11-27T13:47:14;5.70;99.90
29577;DHT22;16509;53.862;10.672;2022-11-27T13:49:41;5.60;99.90
29577;DHT22;16509;53.862;10.672;2022-11-27T13:52:18;5.60;99.90
29577;DHT22;16509;53.862;10.672;2022-11-27T13:54:58;5.50;99.90
29577;DHT22;16509;53.862;10.672;2022-11-27T13:57:25;5.40;99.90
29577;DHT22;16509;53.862;10.672;2022-11-27T14:00:09;5.80;99.90
29577;DHT22;16509;53.862;10.672;2022-11-27T14:02:45;5.30;99.90
29577;DHT22;16509;53.862;10.672;2022-11-27T14:05:13;5.30;99.90
29577;DHT22;16509;53.862;10.672;2022-11-27T14:07:48;5.60;99.90
29577;DHT22;16509;53.862;10.672;2022-11-27T14:10:22;5.20;99.90
29577;DHT22;16509;53.862;10.672;2022-11-27T14:13:06;5.10;99.90
29577;DHT22;16509;53.862;10.672;2022-11-27T14:15:35;5.10;99.90
29577;DHT22;16509;53.862;10.672;2022-11-27T14:18:05;5.20;99.90
29577;DHT22;16509;53.862;10.672;2022-11-27T14:20:36;5.10;99.90
29577;DHT22;16509;53.862;10.672;2022-11-27T14:23:02;5.10;99.90
29577;DHT22;16509;53.862;10.672;2022-11-27T14:25:31;5.60;99.90
29577;DHT22;16509;53.862;10.672;2022-11-27T14:28:12;5.10;99.90
29577;DHT22;16509;53.862;10.672;2022-11-27T14:31:00;5.10;99.90
29577;DHT22;16509;53.862;10.672;2022-11-27T14:33:30;5.10;99.90
29577;DHT22;16509;53.862;10.672;2022-11-27T14:36:01;5.10;99.90
29577;DHT22;16509;53.862;10.672;2022-11-27T14:38:28;5.10;99.90
29577;DHT22;16509;53.862;10.672;2022-11-27T14:41:06;5.00;99.90
29577;DHT22;16509;53.862;10.672;2022-11-27T14:43:32;6.10;99.90
29577;DHT22;16509;53.862;10.672;2022-11-27T14:46:00;5.00;99.90
29577;DHT22;16509;53.862;10.672;2022-11-27T14:48:52;5.20;99.90
29577;DHT22;16509;53.862;10.672;2022-11-27T14:51:23;5.00;99.90
29577;DHT22;16509;53.862;10.672;2022-11-27T14:53:57;5.00;99.90
29577;DHT22;16509;53.862;10.672;2022-11-27T14:56:27;5.40;99.90
29577;DHT22;16509;53.862;10.672;2022-11-27T14:58:54;5.00;99.90
29577;DHT22;16509;53.862;10.672;2022-11-27T15:01:40;5.00;99.90
29577;DHT22;16509;53.862;10.672;2022-11-27T15:04:27;5.20;99.90
29577;DHT22;16509;53.862;10.672;2022-11-27T15:06:55;5.00;99.90
29577;DHT22;16509;53.862;10.672;2022-11-27T15:09:24;4.80;99.90
29577;DHT22;16509;53.862;10.672;2022-11-27T15:11:58;5.00;99.90
29577;DHT22;16509;53.862;10.672;2022-11-27T15:14:26;6.20;99.90
29577;DHT22;16509;53.862;10.672;2022-11-27T15:16:53;5.00;99.90
29577;DHT22;16509;53.862;10.672;2022-11-27T15:19:29;5.10;99.90
29577;DHT22;16509;53.862;10.672;2022-11-27T15:21:56;5.10;99.90
29577;DHT22;16509;53.862;10.672;2022-11-27T15:24:34;5.00;99.90
29577;DHT22;16509;53.862;10.672;2022-11-27T15:29:39;4.90;99.90
29577;DHT22;16509;53.862;10.672;2022-11-27T15:32:19;4.60;99.90
29577;DHT22;16509;53.862;10.672;2022-11-27T15:34:46;4.80;99.90
29577;DHT22;16509;53.862;10.672;2022-11-27T15:39:53;4.80;99.90
29577;DHT22;16509;53.862;10.672;2022-11-27T15:42:20;4.80;99.90
29577;DHT22;16509;53.862;10.672;2022-11-27T15:44:48;4.80;99.90
29577;DHT22;16509;53.862;10.672;2022-11-27T15:47:22;4.90;99.90
29577;DHT22;16509;53.862;10.672;2022-11-27T15:49:49;5.60;99.90
29577;DHT22;16509;53.862;10.672;2022-11-27T15:52:15;5.30;99.90
29577;DHT22;16509;53.862;10.672;2022-11-27T15:54:40;4.80;99.90
29577;DHT22;16509;53.862;10.672;2022-11-27T15:57:06;4.80;99.90
29577;DHT22;16509;53.862;10.672;2022-11-27T15:59:31;4.90;99.90
29577;DHT22;16509;53.862;10.672;2022-11-27T16:01:57;4.90;99.90
29577;DHT22;16509;53.862;10.672;2022-11-27T16:04:23;4.80;99.90
29577;DHT22;16509;53.862;10.672;2022-11-27T16:06:48;4.90;99.90
29577;DHT22;16509;53.862;10.672;2022-11-27T16:09:14;4.90;99.90
29577;DHT22;16509;53.862;10.672;2022-11-27T16:11:40;4.90;99.90
29577;DHT22;16509;53.862;10.672;2022-11-27T16:14:05;4.90;99.90
29577;DHT22;16509;53.862;10.672;2022-11-27T16:16:31;4.80;99.90
29577;DHT22;16509;53.862;10.672;2022-11-27T16:18:58;4.90;99.90
29577;DHT22;16509;53.862;10.672;2022-11-27T16:21:26;5.10;99.90
29577;DHT22;16509;53.862;10.672;2022-11-27T16:23:59;4.90;99.90
29577;DHT22;16509;53.862;10.672;2022-11-27T16:26:25;6.80;99.90
29577;DHT22;16509;53.862;10.672;2022-11-27T16:28:51;4.70;99.90
29577;DHT22;16509;53.862;10.672;2022-11-27T16:31:17;4.90;99.90
29577;DHT22;16509;53.862;10.672;2022-11-27T16:33:42;4.90;99.90
29577;DHT22;16509;53.862;10.672;2022-11-27T16:36:10;5.00;99.90
29577;DHT22;16509;53.862;10.672;2022-11-27T16:38:40;5.00;99.90
29577;DHT22;16509;53.862;10.672;2022-11-27T16:41:08;5.00;99.90
29577;DHT22;16509;53.862;10.672;2022-11-27T16:43:36;4.90;99.90
29577;DHT22;16509;53.862;10.672;2022-11-27T16:46:07;4.90;99.90
29577;DHT22;16509;53.862;10.672;2022-11-27T16:48:34;5.00;99.90
29577;DHT22;16509;53.862;10.672;2022-11-27T16:51:08;5.40;99.90
29577;DHT22;16509;53.862;10.672;2022-11-27T16:53:39;5.10;99.90
29577;DHT22;16509;53.862;10.672;2022-11-27T16:56:06;5.10;99.90
29577;DHT22;16509;53.862;10.672;2022-11-27T16:58:37;5.10;99.90
29577;DHT22;16509;53.862;10.672;2022-11-27T17:01:08;5.10;99.90
29577;DHT22;16509;53.862;10.672;2022-11-27T17:03:35;5.20;99.90
29577;DHT22;16509;53.862;10.672;2022-11-27T17:06:06;5.10;99.90
29577;DHT22;16509;53.862;10.672;2022-11-27T17:08:32;5.20;99.90
29577;DHT22;16509;53.862;10.672;2022-11-27T17:10:58;5.30;99.90
29577;DHT22;16509;53.862;10.672;2022-11-27T17:13:30;5.30;99.90
29577;DHT22;16509;53.862;10.672;2022-11-27T17:15:59;5.50;99.90
29577;DHT22;16509;53.862;10.672;2022-11-27T17:18:25;5.10;99.90
29577;DHT22;16509;53.862;10.672;2022-11-27T17:20:51;5.30;99.90
29577;DHT22;16509;53.862;10.672;2022-11-27T17:23:16;5.30;99.90
29577;DHT22;16509;53.862;10.672;2022-11-27T17:25:42;5.50;99.90
29577;DHT22;16509;53.862;10.672;2022-11-27T17:28:08;5.30;99.90
29577;DHT22;16509;53.862;10.672;2022-11-27T17:30:36;5.30;99.90
29577;DHT22;16509;53.862;10.672;2022-11-27T17:33:02;5.30;99.90
29577;DHT22;16509;53.862;10.672;2022-11-27T17:35:28;5.40;99.90
29577;DHT22;16509;53.862;10.672;2022-11-27T17:37:55;5.50;99.90
29577;DHT22;16509;53.862;10.672;2022-11-27T17:40:20;5.40;99.90
29577;DHT22;16509;53.862;10.672;2022-11-27T17:42:46;5.50;99.90
29577;DHT22;16509;53.862;10.672;2022-11-27T17:45:12;5.70;99.90
29577;DHT22;16509;53.862;10.672;2022-11-27T17:47:38;5.50;99.90
29577;DHT22;16509;53.862;10.672;2022-11-27T17:50:05;5.50;99.90
29577;DHT22;16509;53.862;10.672;2022-11-27T17:52:31;5.50;99.90